sensor_id;sensor_type;location;lat;lon;timestamp;pressure;altitude;pressure_sealevel;temperature;humidity
63033;BME280;49121;38.932;-9.018;2022-09-29T00:00:42;101581.53;;;16.87;84.45
63033;BME280;49121;38.932;-9.018;2022-09-29T00:02:43;101587.88;;;16.81;84.86
63033;BME280;49121;38.932;-9.018;2022-09-29T00:05:02;101585.44;;;16.70;85.07
63033;BME280;49121;38.932;-9.018;2022-09-29T00:07:03;101573.19;;;16.65;85.28
63033;BME280;49121;38.932;-9.018;2022-09-29T00:09:04;101582.09;;;16.62;85.74
63033;BME280;49121;38.932;-9.018;2022-09-29T00:11:17;101560.09;;;16.57;85.60
63033;BME280;49121;38.932;-9.018;2022-09-29T00:15:42;101562.59;;;16.63;85.20
63033;BME280;49121;38.932;-9.018;2022-09-29T00:17:42;101546.94;;;16.51;85.43
63033;BME280;49121;38.932;-9.018;2022-09-29T00:19:43;101547.19;;;16.42;85.92
63033;BME280;49121;38.932;-9.018;2022-09-29T00:24:23;101538.88;;;16.18;86.36
63033;BME280;49121;38.932;-9.018;2022-09-29T00:26:26;101525.84;;;16.07;87.59
63033;BME280;49121;38.932;-9.018;2022-09-29T00:28:28;101528.66;;;16.00;87.79
63033;BME280;49121;38.932;-9.018;2022-09-29T00:30:29;101526.25;;;15.89;88.06
63033;BME280;49121;38.932;-9.018;2022-09-29T00:32:29;101524.66;;;15.80;88.32
63033;BME280;49121;38.932;-9.018;2022-09-29T00:34:30;101520.44;;;15.71;88.92
63033;BME280;49121;38.932;-9.018;2022-09-29T00:36:31;101516.03;;;15.69;89.54
63033;BME280;49121;38.932;-9.018;2022-09-29T00:38:50;101510.97;;;15.58;89.44
63033;BME280;49121;38.932;-9.018;2022-09-29T00:40:54;101509.38;;;15.49;89.97
63033;BME280;49121;38.932;-9.018;2022-09-29T00:42:55;101508.66;;;15.41;90.23
63033;BME280;49121;38.932;-9.018;2022-09-29T00:46:58;101502.69;;;15.30;90.94
63033;BME280;49121;38.932;-9.018;2022-09-29T00:51:13;101503.44;;;15.37;91.69
63033;BME280;49121;38.932;-9.018;2022-09-29T00:53:15;101495.38;;;15.41;91.11
63033;BME280;49121;38.932;-9.018;2022-09-29T00:57:50;101490.91;;;15.45;91.08
63033;BME280;49121;38.932;-9.018;2022-09-29T00:59:59;101496.97;;;15.50;91.23
63033;BME280;49121;38.932;-9.018;2022-09-29T01:02:01;101484.53;;;15.52;91.25
63033;BME280;49121;38.932;-9.018;2022-09-29T01:04:07;101493.19;;;15.62;90.75
63033;BME280;49121;38.932;-9.018;2022-09-29T01:06:44;101498.44;;;15.63;90.13
63033;BME280;49121;38.932;-9.018;2022-09-29T01:09:09;101500.16;;;15.66;90.38
63033;BME280;49121;38.932;-9.018;2022-09-29T01:11:11;101503.59;;;15.71;89.70
63033;BME280;49121;38.932;-9.018;2022-09-29T01:13:12;101503.72;;;15.66;89.85
63033;BME280;49121;38.932;-9.018;2022-09-29T01:15:32;101497.59;;;15.63;90.60
63033;BME280;49121;38.932;-9.018;2022-09-29T01:17:34;101507.22;;;15.67;91.18
63033;BME280;49121;38.932;-9.018;2022-09-29T01:34:06;101505.84;;;15.91;90.47
63033;BME280;49121;38.932;-9.018;2022-09-29T01:38:49;101508.25;;;16.02;90.51
63033;BME280;49121;38.932;-9.018;2022-09-29T01:43:40;101505.47;;;16.06;89.58
63033;BME280;49121;38.932;-9.018;2022-09-29T01:46:07;101489.75;;;15.99;89.58
63033;BME280;49121;38.932;-9.018;2022-09-29T01:48:09;101494.91;;;16.05;89.71
63033;BME280;49121;38.932;-9.018;2022-09-29T01:52:59;101486.03;;;16.06;89.85
63033;BME280;49121;38.932;-9.018;2022-09-29T01:57:48;101474.69;;;15.98;90.13
63033;BME280;49121;38.932;-9.018;2022-09-29T02:00:08;101481.91;;;15.94;90.52
63033;BME280;49121;38.932;-9.018;2022-09-29T02:02:26;101484.56;;;15.92;90.58
63033;BME280;49121;38.932;-9.018;2022-09-29T02:04:38;101471.19;;;15.97;91.86
63033;BME280;49121;38.932;-9.018;2022-09-29T02:06:49;101470.91;;;16.09;92.74
63033;BME280;49121;38.932;-9.018;2022-09-29T02:08:54;101474.41;;;16.11;92.28
63033;BME280;49121;38.932;-9.018;2022-09-29T02:11:02;101465.53;;;16.11;92.11
63033;BME280;49121;38.932;-9.018;2022-09-29T02:13:05;101465.50;;;16.12;92.45
63033;BME280;49121;38.932;-9.018;2022-09-29T02:15:11;101462.88;;;16.11;92.44
63033;BME280;49121;38.932;-9.018;2022-09-29T02:17:17;101470.06;;;16.07;93.03
63033;BME280;49121;38.932;-9.018;2022-09-29T02:19:38;101462.97;;;16.08;93.13
63033;BME280;49121;38.932;-9.018;2022-09-29T02:21:40;101457.81;;;16.00;92.98
63033;BME280;49121;38.932;-9.018;2022-09-29T02:23:41;101457.09;;;15.93;93.22
63033;BME280;49121;38.932;-9.018;2022-09-29T02:28:03;101459.16;;;15.81;93.77
63033;BME280;49121;38.932;-9.018;2022-09-29T02:30:04;101454.03;;;15.74;93.98
63033;BME280;49121;38.932;-9.018;2022-09-29T02:32:07;101453.16;;;15.71;94.85
63033;BME280;49121;38.932;-9.018;2022-09-29T02:34:30;101446.19;;;15.67;94.79
63033;BME280;49121;38.932;-9.018;2022-09-29T02:40:08;101436.66;;;15.58;95.14
63033;BME280;49121;38.932;-9.018;2022-09-29T02:42:50;101432.34;;;15.52;95.35
63033;BME280;49121;38.932;-9.018;2022-09-29T03:02:32;101402.22;;;15.15;96.29
63033;BME280;49121;38.932;-9.018;2022-09-29T03:04:32;101410.88;;;15.23;96.22
63033;BME280;49121;38.932;-9.018;2022-09-29T03:06:33;101406.59;;;15.17;96.48
63033;BME280;49121;38.932;-9.018;2022-09-29T03:08:34;101411.81;;;15.20;96.98
63033;BME280;49121;38.932;-9.018;2022-09-29T03:17:56;101401.47;;;15.08;96.83
63033;BME280;49121;38.932;-9.018;2022-09-29T03:19:56;101394.53;;;15.02;96.74
63033;BME280;49121;38.932;-9.018;2022-09-29T03:21:57;101401.53;;;15.05;97.27
63033;BME280;49121;38.932;-9.018;2022-09-29T03:23:58;101402.41;;;15.04;96.88
63033;BME280;49121;38.932;-9.018;2022-09-29T03:25:59;101394.56;;;14.99;96.80
63033;BME280;49121;38.932;-9.018;2022-09-29T03:30:26;101399.00;;;14.99;96.79
63033;BME280;49121;38.932;-9.018;2022-09-29T03:32:26;101394.63;;;14.98;96.84
63033;BME280;49121;38.932;-9.018;2022-09-29T03:34:27;101392.00;;;14.96;96.79
63033;BME280;49121;38.932;-9.018;2022-09-29T03:36:28;101400.88;;;14.93;96.54
63033;BME280;49121;38.932;-9.018;2022-09-29T03:38:33;101385.00;;;14.92;96.64
63033;BME280;49121;38.932;-9.018;2022-09-29T03:40:33;101385.13;;;14.86;96.88
63033;BME280;49121;38.932;-9.018;2022-09-29T03:42:34;101379.78;;;14.89;96.76
63033;BME280;49121;38.932;-9.018;2022-09-29T03:44:42;101374.53;;;14.86;96.66
63033;BME280;49121;38.932;-9.018;2022-09-29T03:46:43;101375.47;;;14.82;96.40
63033;BME280;49121;38.932;-9.018;2022-09-29T03:48:56;101372.91;;;14.79;96.25
63033;BME280;49121;38.932;-9.018;2022-09-29T03:50:57;101363.28;;;14.75;96.67
63033;BME280;49121;38.932;-9.018;2022-09-29T03:52:57;101358.00;;;14.71;96.94
63033;BME280;49121;38.932;-9.018;2022-09-29T03:54:58;101365.06;;;14.74;96.76
63033;BME280;49121;38.932;-9.018;2022-09-29T03:56:58;101364.97;;;14.77;96.48
63033;BME280;49121;38.932;-9.018;2022-09-29T03:58:59;101368.66;;;14.70;96.38
63033;BME280;49121;38.932;-9.018;2022-09-29T04:01:00;101384.50;;;14.71;95.99
63033;BME280;49121;38.932;-9.018;2022-09-29T04:03:00;101383.66;;;14.71;96.12
63033;BME280;49121;38.932;-9.018;2022-09-29T04:05:01;101389.03;;;14.68;95.51
63033;BME280;49121;38.932;-9.018;2022-09-29T04:09:25;101385.63;;;14.61;95.48
63033;BME280;49121;38.932;-9.018;2022-09-29T04:11:26;101385.66;;;14.58;95.62
63033;BME280;49121;38.932;-9.018;2022-09-29T04:13:27;101387.38;;;14.61;95.22
63033;BME280;49121;38.932;-9.018;2022-09-29T04:15:39;101385.66;;;14.58;95.27
63033;BME280;49121;38.932;-9.018;2022-09-29T04:17:40;101378.72;;;14.51;94.80
63033;BME280;49121;38.932;-9.018;2022-09-29T04:19:40;101386.75;;;14.45;94.74
63033;BME280;49121;38.932;-9.018;2022-09-29T04:22:00;101375.31;;;14.44;94.60
63033;BME280;49121;38.932;-9.018;2022-09-29T04:27:01;101383.47;;;14.32;94.79
63033;BME280;49121;38.932;-9.018;2022-09-29T04:29:01;101388.75;;;14.34;94.70
63033;BME280;49121;38.932;-9.018;2022-09-29T04:31:03;101385.25;;;14.30;94.39
63033;BME280;49121;38.932;-9.018;2022-09-29T04:33:03;101386.22;;;14.26;94.58
63033;BME280;49121;38.932;-9.018;2022-09-29T04:35:04;101383.66;;;14.21;94.56
63033;BME280;49121;38.932;-9.018;2022-09-29T04:37:07;101375.78;;;14.18;94.75
63033;BME280;49121;38.932;-9.018;2022-09-29T04:39:10;101367.84;;;14.17;95.24
63033;BME280;49121;38.932;-9.018;2022-09-29T04:41:14;101368.63;;;14.22;94.99
63033;BME280;49121;38.932;-9.018;2022-09-29T04:43:15;101364.28;;;14.19;95.08
63033;BME280;49121;38.932;-9.018;2022-09-29T04:45:16;101357.19;;;14.20;95.04
63033;BME280;49121;38.932;-9.018;2022-09-29T04:47:16;101356.31;;;14.21;95.07
63033;BME280;49121;38.932;-9.018;2022-09-29T04:49:36;101353.59;;;14.22;94.74
63033;BME280;49121;38.932;-9.018;2022-09-29T04:52:10;101350.09;;;14.22;94.57
63033;BME280;49121;38.932;-9.018;2022-09-29T04:56:49;101335.22;;;14.16;94.61
63033;BME280;49121;38.932;-9.018;2022-09-29T04:58:49;101337.84;;;14.16;93.77
63033;BME280;49121;38.932;-9.018;2022-09-29T05:05:55;101320.72;;;13.86;93.25
63033;BME280;49121;38.932;-9.018;2022-09-29T05:07:55;101335.63;;;13.91;93.38
63033;BME280;49121;38.932;-9.018;2022-09-29T05:09:58;101332.09;;;13.93;93.58
63033;BME280;49121;38.932;-9.018;2022-09-29T05:11:59;101339.09;;;13.95;92.96
63033;BME280;49121;38.932;-9.018;2022-09-29T05:14:00;101329.56;;;13.83;93.32
63033;BME280;49121;38.932;-9.018;2022-09-29T05:16:00;101328.78;;;13.78;93.61
63033;BME280;49121;38.932;-9.018;2022-09-29T05:18:01;101318.38;;;13.67;94.33
63033;BME280;49121;38.932;-9.018;2022-09-29T05:22:22;101322.56;;;13.81;94.48
63033;BME280;49121;38.932;-9.018;2022-09-29T05:24:24;101326.94;;;13.83;94.52
63033;BME280;49121;38.932;-9.018;2022-09-29T05:26:25;101336.41;;;13.97;93.96
63033;BME280;49121;38.932;-9.018;2022-09-29T05:28:46;101324.09;;;13.96;93.59
63033;BME280;49121;38.932;-9.018;2022-09-29T05:31:07;101325.81;;;13.98;93.77
63033;BME280;49121;38.932;-9.018;2022-09-29T05:33:26;101305.56;;;13.94;93.82
63033;BME280;49121;38.932;-9.018;2022-09-29T05:38:05;101309.06;;;13.98;93.12
63033;BME280;49121;38.932;-9.018;2022-09-29T05:40:07;101311.69;;;13.98;93.28
63033;BME280;49121;38.932;-9.018;2022-09-29T05:42:10;101315.78;;;14.16;91.82
63033;BME280;49121;38.932;-9.018;2022-09-29T05:44:11;101306.22;;;14.07;92.19
63033;BME280;49121;38.932;-9.018;2022-09-29T05:46:11;101312.34;;;14.10;92.07
63033;BME280;49121;38.932;-9.018;2022-09-29T05:51:14;101308.03;;;14.05;92.38
63033;BME280;49121;38.932;-9.018;2022-09-29T05:53:14;101310.63;;;14.08;92.55
63033;BME280;49121;38.932;-9.018;2022-09-29T05:55:15;101310.56;;;14.13;92.83
63033;BME280;49121;38.932;-9.018;2022-09-29T05:59:43;101310.25;;;14.28;91.77
63033;BME280;49121;38.932;-9.018;2022-09-29T06:01:56;101307.59;;;14.29;91.79
63033;BME280;49121;38.932;-9.018;2022-09-29T06:03:56;101301.25;;;14.37;91.98
63033;BME280;49121;38.932;-9.018;2022-09-29T06:05:57;101294.13;;;14.42;91.49
63033;BME280;49121;38.932;-9.018;2022-09-29T06:07:58;101299.22;;;14.52;90.95
63033;BME280;49121;38.932;-9.018;2022-09-29T06:10:21;101302.63;;;14.59;90.95
63033;BME280;49121;38.932;-9.018;2022-09-29T06:12:22;101298.00;;;14.69;90.57
63033;BME280;49121;38.932;-9.018;2022-09-29T06:14:41;101306.75;;;14.74;90.42
63033;BME280;49121;38.932;-9.018;2022-09-29T06:16:42;101310.13;;;14.81;90.64
63033;BME280;49121;38.932;-9.018;2022-09-29T06:18:43;101309.09;;;14.88;90.33
63033;BME280;49121;38.932;-9.018;2022-09-29T06:20:43;101307.19;;;14.95;91.19
63033;BME280;49121;38.932;-9.018;2022-09-29T06:28:02;101314.50;;;15.24;91.46
63033;BME280;49121;38.932;-9.018;2022-09-29T06:30:03;101315.13;;;15.35;91.25
63033;BME280;49121;38.932;-9.018;2022-09-29T06:32:04;101311.09;;;15.56;90.30
63033;BME280;49121;38.932;-9.018;2022-09-29T06:34:05;101317.78;;;15.71;89.48
63033;BME280;49121;38.932;-9.018;2022-09-29T06:36:12;101320.34;;;15.77;88.77
63033;BME280;49121;38.932;-9.018;2022-09-29T06:41:15;101315.75;;;15.84;88.46
63033;BME280;49121;38.932;-9.018;2022-09-29T06:43:16;101309.50;;;15.85;88.33
63033;BME280;49121;38.932;-9.018;2022-09-29T06:45:17;101311.25;;;15.86;88.33
63033;BME280;49121;38.932;-9.018;2022-09-29T06:47:20;101319.22;;;15.86;88.14
63033;BME280;49121;38.932;-9.018;2022-09-29T06:49:20;101321.63;;;15.97;87.63
63033;BME280;49121;38.932;-9.018;2022-09-29T06:51:22;101325.81;;;16.05;87.21
63033;BME280;49121;38.932;-9.018;2022-09-29T06:53:23;101314.97;;;16.13;86.56
63033;BME280;49121;38.932;-9.018;2022-09-29T06:55:25;101328.09;;;16.19;86.54
63033;BME280;49121;38.932;-9.018;2022-09-29T06:57:25;101322.78;;;16.19;86.58
63033;BME280;49121;38.932;-9.018;2022-09-29T07:01:45;101316.78;;;16.45;85.26
63033;BME280;49121;38.932;-9.018;2022-09-29T07:03:49;101322.78;;;16.52;85.00
63033;BME280;49121;38.932;-9.018;2022-09-29T07:08:28;101333.72;;;16.72;83.75
63033;BME280;49121;38.932;-9.018;2022-09-29T07:10:30;101324.63;;;16.81;83.77
63033;BME280;49121;38.932;-9.018;2022-09-29T07:12:31;101323.41;;;16.93;83.12
63033;BME280;49121;38.932;-9.018;2022-09-29T07:14:50;101324.34;;;17.20;82.09
63033;BME280;49121;38.932;-9.018;2022-09-29T07:16:55;101309.16;;;17.52;80.78
63033;BME280;49121;38.932;-9.018;2022-09-29T07:26:35;101323.97;;;17.89;77.81
63033;BME280;49121;38.932;-9.018;2022-09-29T07:28:37;101317.31;;;17.74;77.85
63033;BME280;49121;38.932;-9.018;2022-09-29T07:30:38;101316.84;;;17.61;78.34
63033;BME280;49121;38.932;-9.018;2022-09-29T07:32:38;101319.72;;;17.55;78.80
63033;BME280;49121;38.932;-9.018;2022-09-29T07:34:39;101309.41;;;17.44;79.32
63033;BME280;49121;38.932;-9.018;2022-09-29T07:36:40;101320.78;;;17.49;79.60
63033;BME280;49121;38.932;-9.018;2022-09-29T07:38:40;101315.59;;;17.45;79.46
63033;BME280;49121;38.932;-9.018;2022-09-29T07:40:41;101314.69;;;17.72;78.31
63033;BME280;49121;38.932;-9.018;2022-09-29T07:45:20;101319.09;;;17.73;78.29
63033;BME280;49121;38.932;-9.018;2022-09-29T07:47:21;101317.03;;;17.83;77.62
63033;BME280;49121;38.932;-9.018;2022-09-29T07:49:23;101308.41;;;17.75;78.04
63033;BME280;49121;38.932;-9.018;2022-09-29T07:51:25;101324.09;;;17.84;78.04
63033;BME280;49121;38.932;-9.018;2022-09-29T07:53:27;101323.84;;;17.92;77.74
63033;BME280;49121;38.932;-9.018;2022-09-29T07:55:46;101324.38;;;18.02;77.66
63033;BME280;49121;38.932;-9.018;2022-09-29T07:57:47;101327.88;;;18.04;77.61
63033;BME280;49121;38.932;-9.018;2022-09-29T07:59:48;101304.16;;;17.96;77.71
63033;BME280;49121;38.932;-9.018;2022-09-29T08:01:49;101308.19;;;18.08;78.02
63033;BME280;49121;38.932;-9.018;2022-09-29T08:03:52;101302.47;;;18.18;77.57
63033;BME280;49121;38.932;-9.018;2022-09-29T08:06:06;101319.75;;;18.57;76.84
63033;BME280;49121;38.932;-9.018;2022-09-29T08:08:07;101326.03;;;19.05;75.12
63033;BME280;49121;38.932;-9.018;2022-09-29T08:10:10;101315.69;;;19.41;73.00
63033;BME280;49121;38.932;-9.018;2022-09-29T08:12:14;101323.88;;;19.58;71.77
63033;BME280;49121;38.932;-9.018;2022-09-29T08:14:15;101312.31;;;19.36;71.68
63033;BME280;49121;38.932;-9.018;2022-09-29T08:16:17;101327.34;;;19.38;71.93
63033;BME280;49121;38.932;-9.018;2022-09-29T08:18:18;101327.47;;;19.13;72.90
63033;BME280;49121;38.932;-9.018;2022-09-29T08:20:22;101322.81;;;18.95;73.36
63033;BME280;49121;38.932;-9.018;2022-09-29T08:22:22;101320.38;;;19.12;72.68
63033;BME280;49121;38.932;-9.018;2022-09-29T08:24:26;101302.75;;;19.08;72.94
63033;BME280;49121;38.932;-9.018;2022-09-29T08:26:27;101288.47;;;19.09;73.15
63033;BME280;49121;38.932;-9.018;2022-09-29T08:28:30;101317.66;;;19.58;71.61
63033;BME280;49121;38.932;-9.018;2022-09-29T08:30:31;101307.31;;;19.72;71.25
63033;BME280;49121;38.932;-9.018;2022-09-29T08:32:32;101322.88;;;19.61;71.43
63033;BME280;49121;38.932;-9.018;2022-09-29T08:34:35;101309.38;;;19.64;71.53
63033;BME280;49121;38.932;-9.018;2022-09-29T08:36:38;101311.94;;;19.89;70.94
63033;BME280;49121;38.932;-9.018;2022-09-29T08:38:50;101305.34;;;19.98;70.68
63033;BME280;49121;38.932;-9.018;2022-09-29T08:40:53;101314.03;;;20.23;69.17
63033;BME280;49121;38.932;-9.018;2022-09-29T08:43:10;101310.69;;;20.18;69.16
63033;BME280;49121;38.932;-9.018;2022-09-29T08:45:46;101318.59;;;19.79;70.55
63033;BME280;49121;38.932;-9.018;2022-09-29T08:47:50;101328.22;;;19.83;70.96
63033;BME280;49121;38.932;-9.018;2022-09-29T08:49:58;101318.53;;;19.36;72.93
63033;BME280;49121;38.932;-9.018;2022-09-29T08:52:16;101314.84;;;19.17;74.56
63033;BME280;49121;38.932;-9.018;2022-09-29T08:54:32;101322.47;;;19.04;75.78
63033;BME280;49121;38.932;-9.018;2022-09-29T08:56:34;101294.84;;;18.83;76.73
63033;BME280;49121;38.932;-9.018;2022-09-29T08:58:37;101308.94;;;19.09;76.89
63033;BME280;49121;38.932;-9.018;2022-09-29T09:01:03;101322.31;;;19.31;76.45
63033;BME280;49121;38.932;-9.018;2022-09-29T09:08:04;101312.25;;;19.81;74.56
63033;BME280;49121;38.932;-9.018;2022-09-29T09:27:25;101294.97;;;20.11;72.91
63033;BME280;49121;38.932;-9.018;2022-09-29T09:29:31;101292.31;;;20.31;72.06
63033;BME280;49121;38.932;-9.018;2022-09-29T09:31:47;101304.25;;;20.63;71.18
63033;BME280;49121;38.932;-9.018;2022-09-29T09:38:52;101305.22;;;21.00;69.66
63033;BME280;49121;38.932;-9.018;2022-09-29T09:40:58;101313.19;;;21.02;69.79
63033;BME280;49121;38.932;-9.018;2022-09-29T09:43:05;101288.34;;;20.79;71.01
63033;BME280;49121;38.932;-9.018;2022-09-29T09:47:28;101297.41;;;20.56;72.42
63033;BME280;49121;38.932;-9.018;2022-09-29T09:49:40;101300.00;;;20.78;70.98
63033;BME280;49121;38.932;-9.018;2022-09-29T09:54:33;101303.56;;;20.98;71.52
63033;BME280;49121;38.932;-9.018;2022-09-29T09:56:49;101301.59;;;21.01;71.88
63033;BME280;49121;38.932;-9.018;2022-09-29T10:01:06;101290.16;;;20.60;73.53
63033;BME280;49121;38.932;-9.018;2022-09-29T10:03:08;101294.25;;;20.67;73.22
63033;BME280;49121;38.932;-9.018;2022-09-29T10:05:15;101284.13;;;20.55;74.27
63033;BME280;49121;38.932;-9.018;2022-09-29T10:07:21;101302.84;;;20.55;75.81
63033;BME280;49121;38.932;-9.018;2022-09-29T10:09:25;101297.34;;;20.18;78.87
63033;BME280;49121;38.932;-9.018;2022-09-29T10:11:29;101280.50;;;19.75;81.64
63033;BME280;49121;38.932;-9.018;2022-09-29T10:13:31;101303.06;;;19.67;83.37
63033;BME280;49121;38.932;-9.018;2022-09-29T10:20:28;101270.41;;;19.38;88.71
63033;BME280;49121;38.932;-9.018;2022-09-29T10:22:29;101267.00;;;19.56;87.60
63033;BME280;49121;38.932;-9.018;2022-09-29T10:24:31;101256.63;;;19.71;88.05
63033;BME280;49121;38.932;-9.018;2022-09-29T10:26:44;101259.75;;;20.21;86.78
63033;BME280;49121;38.932;-9.018;2022-09-29T10:28:52;101254.34;;;20.62;83.54
63033;BME280;49121;38.932;-9.018;2022-09-29T10:30:55;101251.13;;;20.94;82.49
63033;BME280;49121;38.932;-9.018;2022-09-29T10:32:58;101219.41;;;21.03;80.65
63033;BME280;49121;38.932;-9.018;2022-09-29T10:37:33;101243.44;;;20.86;82.03
63033;BME280;49121;38.932;-9.018;2022-09-29T10:39:40;101234.00;;;20.39;84.76
63033;BME280;49121;38.932;-9.018;2022-09-29T10:41:51;101236.97;;;20.13;86.52
63033;BME280;49121;38.932;-9.018;2022-09-29T10:43:53;101233.19;;;20.18;87.64
63033;BME280;49121;38.932;-9.018;2022-09-29T10:45:54;101230.31;;;20.02;87.97
63033;BME280;49121;38.932;-9.018;2022-09-29T10:50:26;101221.44;;;20.02;88.68
63033;BME280;49121;38.932;-9.018;2022-09-29T10:52:27;101198.72;;;19.92;88.73
63033;BME280;49121;38.932;-9.018;2022-09-29T10:54:34;101211.69;;;20.20;89.95
63033;BME280;49121;38.932;-9.018;2022-09-29T10:56:47;101210.19;;;20.14;89.57
63033;BME280;49121;38.932;-9.018;2022-09-29T10:58:54;101214.91;;;20.47;89.29
63033;BME280;49121;38.932;-9.018;2022-09-29T11:01:10;101186.56;;;20.63;88.34
63033;BME280;49121;38.932;-9.018;2022-09-29T11:03:25;101196.16;;;20.87;86.32
63033;BME280;49121;38.932;-9.018;2022-09-29T11:05:26;101199.50;;;21.09;84.52
63033;BME280;49121;38.932;-9.018;2022-09-29T11:07:28;101200.47;;;21.62;83.16
63033;BME280;49121;38.932;-9.018;2022-09-29T11:09:39;101187.09;;;21.95;79.92
63033;BME280;49121;38.932;-9.018;2022-09-29T11:13:47;101180.63;;;21.99;79.01
63033;BME280;49121;38.932;-9.018;2022-09-29T11:15:49;101174.09;;;22.21;79.77
63033;BME280;49121;38.932;-9.018;2022-09-29T11:17:51;101163.50;;;22.02;78.42
63033;BME280;49121;38.932;-9.018;2022-09-29T11:19:54;101188.69;;;21.82;81.59
63033;BME280;49121;38.932;-9.018;2022-09-29T11:27:04;101182.41;;;20.75;87.62
63033;BME280;49121;38.932;-9.018;2022-09-29T11:31:34;101177.53;;;20.08;92.24
63033;BME280;49121;38.932;-9.018;2022-09-29T11:42:57;101150.34;;;19.36;95.76
63033;BME280;49121;38.932;-9.018;2022-09-29T11:45:03;101116.09;;;19.05;98.21
63033;BME280;49121;38.932;-9.018;2022-09-29T11:47:35;101133.56;;;19.12;99.45
63033;BME280;49121;38.932;-9.018;2022-09-29T11:49:45;101148.16;;;19.04;99.82
63033;BME280;49121;38.932;-9.018;2022-09-29T11:51:57;101151.09;;;18.97;99.63
63033;BME280;49121;38.932;-9.018;2022-09-29T11:54:33;101160.78;;;18.76;100.00
63033;BME280;49121;38.932;-9.018;2022-09-29T11:57:07;101180.44;;;18.52;100.00
63033;BME280;49121;38.932;-9.018;2022-09-29T12:01:51;101194.28;;;17.64;98.23
63033;BME280;49121;38.932;-9.018;2022-09-29T12:09:41;101180.56;;;17.50;99.55
63033;BME280;49121;38.932;-9.018;2022-09-29T12:12:35;101175.50;;;17.67;99.50
63033;BME280;49121;38.932;-9.018;2022-09-29T12:17:12;101175.22;;;17.76;97.01
63033;BME280;49121;38.932;-9.018;2022-09-29T12:19:16;101168.13;;;17.75;97.41
63033;BME280;49121;38.932;-9.018;2022-09-29T12:21:47;101156.59;;;17.75;96.79
63033;BME280;49121;38.932;-9.018;2022-09-29T12:23:49;101160.84;;;17.81;97.08
63033;BME280;49121;38.932;-9.018;2022-09-29T12:25:58;101158.06;;;17.85;97.25
63033;BME280;49121;38.932;-9.018;2022-09-29T12:28:11;101155.59;;;18.04;97.90
63033;BME280;49121;38.932;-9.018;2022-09-29T12:30:22;101148.28;;;18.09;96.13
63033;BME280;49121;38.932;-9.018;2022-09-29T12:32:34;101145.91;;;18.25;97.25
63033;BME280;49121;38.932;-9.018;2022-09-29T12:35:05;101134.44;;;18.47;96.86
63033;BME280;49121;38.932;-9.018;2022-09-29T12:37:35;101139.97;;;18.64;94.18
63033;BME280;49121;38.932;-9.018;2022-09-29T12:44:30;101118.50;;;19.32;91.43
63033;BME280;49121;38.932;-9.018;2022-09-29T12:46:50;101120.50;;;19.68;89.26
63033;BME280;49121;38.932;-9.018;2022-09-29T12:49:12;101128.06;;;19.78;88.52
63033;BME280;49121;38.932;-9.018;2022-09-29T12:56:32;101115.63;;;20.17;87.19
63033;BME280;49121;38.932;-9.018;2022-09-29T13:00:38;101106.13;;;19.72;86.48
63033;BME280;49121;38.932;-9.018;2022-09-29T13:07:38;101118.09;;;20.96;81.88
63033;BME280;49121;38.932;-9.018;2022-09-29T13:12:14;101105.91;;;21.60;81.54
63033;BME280;49121;38.932;-9.018;2022-09-29T13:21:10;101091.31;;;21.31;78.44
63033;BME280;49121;38.932;-9.018;2022-09-29T13:25:53;101081.09;;;21.04;79.60
63033;BME280;49121;38.932;-9.018;2022-09-29T13:28:00;101079.84;;;21.11;80.28
63033;BME280;49121;38.932;-9.018;2022-09-29T13:32:08;101090.78;;;20.89;80.38
63033;BME280;49121;38.932;-9.018;2022-09-29T13:34:21;101071.38;;;20.84;81.59
63033;BME280;49121;38.932;-9.018;2022-09-29T13:36:27;101061.94;;;20.59;84.18
63033;BME280;49121;38.932;-9.018;2022-09-29T13:38:32;101058.41;;;20.59;83.38
63033;BME280;49121;38.932;-9.018;2022-09-29T13:40:35;101053.84;;;20.61;84.53
63033;BME280;49121;38.932;-9.018;2022-09-29T13:44:36;101038.13;;;20.90;83.04
63033;BME280;49121;38.932;-9.018;2022-09-29T13:46:38;101044.66;;;21.19;81.21
63033;BME280;49121;38.932;-9.018;2022-09-29T13:48:48;101026.66;;;21.38;81.97
63033;BME280;49121;38.932;-9.018;2022-09-29T13:50:51;101040.97;;;21.88;76.53
63033;BME280;49121;38.932;-9.018;2022-09-29T13:58:02;101029.63;;;22.15;74.63
63033;BME280;49121;38.932;-9.018;2022-09-29T14:00:16;101038.41;;;22.34;72.08
63033;BME280;49121;38.932;-9.018;2022-09-29T14:06:45;101025.69;;;23.28;68.53
63033;BME280;49121;38.932;-9.018;2022-09-29T14:08:52;101010.56;;;22.97;65.83
63033;BME280;49121;38.932;-9.018;2022-09-29T14:11:04;101013.91;;;23.17;66.03
63033;BME280;49121;38.932;-9.018;2022-09-29T14:15:17;101034.69;;;23.13;66.69
63033;BME280;49121;38.932;-9.018;2022-09-29T14:17:38;101036.69;;;22.79;68.20
63033;BME280;49121;38.932;-9.018;2022-09-29T14:20:13;101025.72;;;22.68;67.70
63033;BME280;49121;38.932;-9.018;2022-09-29T14:26:50;101017.84;;;22.95;67.10
63033;BME280;49121;38.932;-9.018;2022-09-29T14:28:54;101032.06;;;22.67;67.86
63033;BME280;49121;38.932;-9.018;2022-09-29T14:33:39;101046.69;;;22.14;68.49
63033;BME280;49121;38.932;-9.018;2022-09-29T14:36:01;101012.72;;;21.98;69.17
63033;BME280;49121;38.932;-9.018;2022-09-29T14:38:29;101026.38;;;21.94;70.22
63033;BME280;49121;38.932;-9.018;2022-09-29T14:40:31;101024.75;;;22.23;69.52
63033;BME280;49121;38.932;-9.018;2022-09-29T14:42:32;101020.81;;;22.60;68.28
63033;BME280;49121;38.932;-9.018;2022-09-29T14:44:36;101018.56;;;22.83;67.42
63033;BME280;49121;38.932;-9.018;2022-09-29T14:57:25;101022.44;;;22.63;60.58
63033;BME280;49121;38.932;-9.018;2022-09-29T15:02:39;101006.16;;;22.66;60.63
63033;BME280;49121;38.932;-9.018;2022-09-29T15:07:02;100987.25;;;22.21;63.15
63033;BME280;49121;38.932;-9.018;2022-09-29T15:09:17;100984.59;;;22.37;61.58
63033;BME280;49121;38.932;-9.018;2022-09-29T15:11:32;100983.03;;;22.33;61.30